Aviston, Illinois
Current Conditions -  °F | °C
As of 7:58 AM on Monday 20 Oct 2014 (Local Time) from KBLV Reporting Station
Broken Clouds Broken Clouds  
Wind Chill: 50°   Ceiling: 8000
Heat Index: 50°   Visibility: 10mi
Dew Point: 49°   Wind: 1mph
Humidity: 95%   Direction: NA
Pressure: 29.97"   Gusts: NA
Location:  38.61°N, 89.61°W
Report Text: KBLV 201258Z VRB01KT 10SM BKN080 10/09 A2997 RMK AO2A SLP153 T01020094
Loading
Personal Weather Stations






























Interactive Weather Map
Tropical Storm Tracking
New forecast layout! Learn more

10-Day Weather Forecast

Advertisements
Track Severe Weather on mobile